Terminal Aerodrome Forecast
Issued by NWS

Home | Current Version | Previous Version | Text Only | Print | Product List | Glossary On
Versions: 1 2 3 4 5 6 7 8 9 10 11 12 13 14 15 16 17 18 19 20 21
529
FTUS41 KCLE 112327
TAFFDY
TAF
KFDY 112327Z 1200/1224 16007KT P6SM VCSH SCT060 BKN200
      TEMPO 1203/1207 3SM -SN BKN025
     FM120700 29014G24KT 2SM -SN OVC015
     FM121300 31018G28KT P6SM OVC025
     FM121600 31018G28KT P6SM OVC035=

USA.gov is the U.S. government's official web portal to all federal, state and local government web resources and services.